createdAt,value
2018-02-22T00:00:03.209Z,7.80
2018-02-22T00:04:54.141Z,8.83
2018-02-22T00:09:45.075Z,7.97
2018-02-22T00:14:36.007Z,8.07
2018-02-22T00:19:26.942Z,8.57
2018-02-22T00:24:17.861Z,8.57
2018-02-22T00:29:08.777Z,8.30
2018-02-22T00:33:59.715Z,8.20
2018-02-22T00:38:51.380Z,9.13
2018-02-22T00:43:42.301Z,9.20
2018-02-22T00:48:33.277Z,8.17
2018-02-22T00:53:24.998Z,8.27
2018-02-22T00:58:15.913Z,8.70
2018-02-22T01:03:06.936Z,7.17
2018-02-22T01:07:57.876Z,8.00
2018-02-22T01:12:49.592Z,8.10
2018-02-22T01:17:40.537Z,8.47
2018-02-22T01:22:32.198Z,7.83
2018-02-22T01:27:23.115Z,9.00
2018-02-22T01:32:14.030Z,7.83
2018-02-22T01:37:05.686Z,8.43
2018-02-22T01:41:56.602Z,8.70
2018-02-22T01:46:47.558Z,8.37
2018-02-22T01:51:38.470Z,10.13
2018-02-22T01:56:29.394Z,8.30
2018-02-22T02:01:20.314Z,7.53
2018-02-22T02:06:11.233Z,9.03
2018-02-22T02:11:02.145Z,9.03
2018-02-22T02:15:53.075Z,8.60
2018-02-22T02:20:44.006Z,9.70
2018-02-22T02:25:35.662Z,9.93
2018-02-22T02:30:26.607Z,10.90
2018-02-22T02:35:17.570Z,9.37
2018-02-22T02:40:08.486Z,9.97
2018-02-22T02:44:59.421Z,10.00
2018-02-22T02:49:51.142Z,8.10
2018-02-22T02:54:42.170Z,9.80
2018-02-22T02:59:33.084Z,9.40
2018-02-22T03:04:23.998Z,10.00
2018-02-22T03:09:14.941Z,10.13
2018-02-22T03:14:06.630Z,9.23
2018-02-22T03:18:57.606Z,9.23
2018-02-22T03:23:49.294Z,10.43
2018-02-22T03:28:40.245Z,10.40
2018-02-22T03:33:31.177Z,9.30
2018-02-22T03:38:22.906Z,9.03
2018-02-22T03:43:14.586Z,11.47
2018-02-22T03:48:05.520Z,9.30
2018-02-22T03:52:56.457Z,9.43
2018-02-22T03:57:47.531Z,10.27
2018-02-22T04:02:38.540Z,9.90
2018-02-22T04:07:29.489Z,10.30
2018-02-22T04:12:20.416Z,9.47
2018-02-22T04:17:11.341Z,10.57
2018-02-22T04:22:02.265Z,9.47
2018-02-22T04:26:53.214Z,10.20
2018-02-22T04:31:44.909Z,11.17
2018-02-22T04:36:35.841Z,9.80
2018-02-22T04:41:26.773Z,10.07
2018-02-22T04:46:17.705Z,10.50
2018-02-22T04:51:09.469Z,11.43
2018-02-22T04:56:00.398Z,10.70
2018-02-22T05:00:51.322Z,10.80
2018-02-22T05:05:42.248Z,11.10
2018-02-22T05:10:33.195Z,11.87
2018-02-22T05:15:24.102Z,11.77
2018-02-22T05:20:15.752Z,11.90
2018-02-22T05:25:06.656Z,11.47
2018-02-22T05:29:57.738Z,11.33
2018-02-22T05:34:48.717Z,11.80
2018-02-22T05:39:39.641Z,10.67
2018-02-22T05:44:30.543Z,12.50
2018-02-22T05:49:21.457Z,13.47
2018-02-22T05:54:12.349Z,11.30
2018-02-22T05:59:03.302Z,12.13
2018-02-22T06:03:54.201Z,12.83
2018-02-22T06:08:45.139Z,12.00
2018-02-22T06:13:36.038Z,12.33
2018-02-22T06:18:26.975Z,12.77
2018-02-22T06:23:17.873Z,11.63
2018-02-22T06:28:09.010Z,14.43
2018-02-22T06:32:59.938Z,12.07
2018-02-22T06:37:50.862Z,12.37
2018-02-22T06:42:41.765Z,13.57
2018-02-22T06:47:32.666Z,13.47
2018-02-22T06:52:23.602Z,12.70
2018-02-22T06:57:14.469Z,14.30
2018-02-22T07:02:06.106Z,13.13
2018-02-22T07:06:57.746Z,13.00
2018-02-22T07:11:48.634Z,12.43
2018-02-22T07:16:39.521Z,12.57
2018-02-22T07:21:31.258Z,13.17
2018-02-22T07:26:22.145Z,12.70
2018-02-22T07:31:13.026Z,13.90
2018-02-22T07:36:03.913Z,13.33
2018-02-22T07:46:12.663Z,21.50
2018-02-22T07:51:04.282Z,15.60
2018-02-22T07:55:55.178Z,15.47
2018-02-22T08:00:46.251Z,15.23
2018-02-22T08:05:37.178Z,16.30
2018-02-22T08:10:28.081Z,17.60
2018-02-22T08:15:19.040Z,18.97
2018-02-22T08:20:09.914Z,18.90
2018-02-22T08:25:00.990Z,15.27
2018-02-22T08:29:51.902Z,19.13
2018-02-22T08:34:42.793Z,17.10
2018-02-22T08:39:34.458Z,21.80
2018-02-22T08:44:25.346Z,18.90
2018-02-22T08:49:16.238Z,21.10
2018-02-22T08:54:07.117Z,18.13
2018-02-22T08:58:58.005Z,16.10
2018-02-22T09:03:48.894Z,13.70
2018-02-22T09:08:39.799Z,14.27
2018-02-22T09:13:30.708Z,14.40
2018-02-22T09:18:22.337Z,14.00
2018-02-22T09:23:13.979Z,13.20
2018-02-22T09:28:04.870Z,16.10
2018-02-22T09:32:55.766Z,13.93
2018-02-22T09:37:46.653Z,13.80
2018-02-22T09:42:37.551Z,13.40
2018-02-22T09:47:29.186Z,15.43
2018-02-22T09:52:20.831Z,16.53
2018-02-22T09:57:11.728Z,13.97
2018-02-22T10:02:03.370Z,11.60
2018-02-22T10:06:55.009Z,11.80
2018-02-22T10:11:46.658Z,12.80
2018-02-22T10:16:37.540Z,10.20
2018-02-22T10:21:28.427Z,11.17
2018-02-22T10:26:19.320Z,11.73
2018-02-22T10:31:10.217Z,17.60
2018-02-22T10:36:01.875Z,12.87
2018-02-22T10:40:52.771Z,15.40
2018-02-22T10:45:44.405Z,15.73
2018-02-22T10:50:36.050Z,11.37
2018-02-22T10:55:26.950Z,16.83
2018-02-22T11:00:24.967Z,17.83
2018-02-22T11:05:15.878Z,15.80
2018-02-22T11:10:06.834Z,16.07
2018-02-22T11:14:57.725Z,14.77
2018-02-22T11:19:48.675Z,15.07
2018-02-22T11:24:39.542Z,15.43
2018-02-22T11:29:30.430Z,13.03
2018-02-22T11:34:21.421Z,11.67
2018-02-22T11:39:13.066Z,12.53
2018-02-22T11:44:03.964Z,16.37
2018-02-22T11:48:54.854Z,14.00
2018-02-22T11:53:45.753Z,15.30
2018-02-22T11:58:37.390Z,14.90
2018-02-22T12:03:29.025Z,14.23
2018-02-22T12:08:20.669Z,9.60
2018-02-22T12:13:12.299Z,10.83
2018-02-22T12:18:03.938Z,8.73
2018-02-22T12:22:55.594Z,7.07
2018-02-22T12:27:46.482Z,12.60
2018-02-22T12:32:38.125Z,12.00
2018-02-22T12:37:29.758Z,12.93
2018-02-22T12:42:21.396Z,8.53
2018-02-22T12:47:13.026Z,11.20
2018-02-22T12:52:04.666Z,9.50
2018-02-22T12:56:56.294Z,11.40
2018-02-22T13:01:47.932Z,7.40
2018-02-22T13:06:39.554Z,6.07
2018-02-22T13:11:30.438Z,6.07
2018-02-22T13:16:21.343Z,6.23
2018-02-22T13:21:12.230Z,5.90
2018-02-22T13:26:03.130Z,5.07
2018-02-22T13:30:54.753Z,5.40
2018-02-22T13:35:45.657Z,3.67
2018-02-22T13:40:36.555Z,4.20
2018-02-22T13:45:30.475Z,5.40
2018-02-22T13:50:34.005Z,4.27
2018-02-22T13:55:25.654Z,4.03
2018-02-22T14:00:29.767Z,6.87
2018-02-22T14:05:21.528Z,6.93
2018-02-22T14:10:12.338Z,7.57
2018-02-22T14:15:03.995Z,5.43
2018-02-22T14:19:54.910Z,5.53
2018-02-22T14:24:45.834Z,4.90
2018-02-22T14:29:36.745Z,5.03
2018-02-22T14:34:27.727Z,5.90
2018-02-22T14:39:19.382Z,5.97
2018-02-22T14:44:11.229Z,5.63
2018-02-22T14:49:02.206Z,4.87
2018-02-22T14:53:53.118Z,5.60
2018-02-22T14:58:44.031Z,6.80
2018-02-22T15:03:34.946Z,7.00
2018-02-22T15:08:25.866Z,7.93
2018-02-22T15:13:16.902Z,7.07
2018-02-22T15:18:07.806Z,6.23
2018-02-22T15:22:58.714Z,7.10
2018-02-22T15:27:49.665Z,6.07
2018-02-22T15:32:40.574Z,8.00
2018-02-22T15:37:31.502Z,9.10
2018-02-22T15:42:22.410Z,8.87
2018-02-22T15:47:13.357Z,7.87
2018-02-22T15:52:05.025Z,8.80
2018-02-22T15:56:56.040Z,10.87
2018-02-22T16:01:47.006Z,8.77
2018-02-22T16:06:37.917Z,9.13
2018-02-22T16:11:28.854Z,9.03
2018-02-22T16:16:19.873Z,10.67
2018-02-22T16:21:10.886Z,8.40
2018-02-22T16:26:01.811Z,9.00
2018-02-22T16:30:52.722Z,8.10
2018-02-22T16:35:43.818Z,7.23
2018-02-22T16:40:34.723Z,9.30
2018-02-22T16:45:25.682Z,8.63
2018-02-22T16:50:16.605Z,10.37
2018-02-22T16:55:07.525Z,8.67
2018-02-22T16:59:58.446Z,8.60
2018-02-22T17:04:49.354Z,8.43
2018-02-22T17:09:40.263Z,7.80
2018-02-22T17:14:31.170Z,9.90
2018-02-22T17:19:22.073Z,9.23
2018-02-22T17:24:12.982Z,9.40
2018-02-22T17:29:09.957Z,9.87
2018-02-22T17:34:00.902Z,8.13
2018-02-22T17:39:01.798Z,9.80
2018-02-22T17:43:53.450Z,8.03
2018-02-22T17:48:44.366Z,10.10
2018-02-22T17:53:35.285Z,9.73
2018-02-22T17:58:26.253Z,10.00
2018-02-22T18:03:17.253Z,10.70
2018-02-22T18:08:08.159Z,9.73
2018-02-22T18:12:59.102Z,9.90
2018-02-22T18:17:50.002Z,9.60
2018-02-22T18:22:40.986Z,7.83
2018-02-22T18:27:31.930Z,9.27
2018-02-22T18:32:22.895Z,8.50
2018-02-22T18:37:20.147Z,10.47
2018-02-22T18:42:17.166Z,10.17
2018-02-22T18:47:08.078Z,9.43
2018-02-22T18:51:59.187Z,9.70
2018-02-22T18:56:50.110Z,8.90
2018-02-22T19:01:41.817Z,9.20
2018-02-22T19:06:32.806Z,8.10
2018-02-22T19:11:23.734Z,9.30
2018-02-22T19:16:14.625Z,8.43
2018-02-22T19:21:05.509Z,9.20
2018-02-22T19:25:56.458Z,8.77
2018-02-22T19:30:47.334Z,9.43
2018-02-22T19:35:38.221Z,9.13
2018-02-22T19:40:29.148Z,8.50
2018-02-22T19:45:20.066Z,9.30
2018-02-22T19:50:11.802Z,10.23
2018-02-22T19:55:02.714Z,8.73
2018-02-22T19:59:53.654Z,9.03
2018-02-22T20:04:44.549Z,9.90
2018-02-22T20:09:35.454Z,8.60
2018-02-22T20:14:26.355Z,8.87
2018-02-22T20:19:17.298Z,8.00
2018-02-22T20:24:08.230Z,9.20
2018-02-22T20:28:59.861Z,8.83
2018-02-22T20:33:50.786Z,9.23
2018-02-22T20:38:42.518Z,8.97
2018-02-22T20:43:33.450Z,8.73
2018-02-22T20:48:24.355Z,7.53
2018-02-22T20:53:16.230Z,8.90
2018-02-22T20:58:07.890Z,8.53
2018-02-22T21:02:58.824Z,9.20
2018-02-22T21:07:49.797Z,8.50
2018-02-22T21:12:40.693Z,8.40
2018-02-22T21:17:31.622Z,7.87
2018-02-22T21:22:22.535Z,7.70
2018-02-22T21:27:14.291Z,6.93
2018-02-22T21:32:05.313Z,7.90
2018-02-22T21:36:56.323Z,7.13
2018-02-22T21:41:47.246Z,7.37
2018-02-22T21:46:38.253Z,8.10
2018-02-22T21:51:29.161Z,7.37
2018-02-22T21:56:20.098Z,7.20
2018-02-22T22:01:11.006Z,7.10
2018-02-22T22:06:02.000Z,7.77
2018-02-22T22:10:52.925Z,7.33
2018-02-22T22:15:43.869Z,6.47
2018-02-22T22:20:34.822Z,6.40
2018-02-22T22:25:33.482Z,6.07
2018-02-22T22:30:24.626Z,7.50
2018-02-22T22:35:15.538Z,7.60
2018-02-22T22:40:06.450Z,6.30
2018-02-22T22:44:57.373Z,6.30
2018-02-22T22:49:48.287Z,6.87
2018-02-22T22:54:39.314Z,6.67
2018-02-22T22:59:30.243Z,6.60
2018-02-22T23:04:21.141Z,6.70
2018-02-22T23:09:12.050Z,8.10
2018-02-22T23:14:02.969Z,6.47
2018-02-22T23:18:53.859Z,7.50
2018-02-22T23:23:44.818Z,7.50
2018-02-22T23:28:35.720Z,7.60
2018-02-22T23:33:26.636Z,8.27
2018-02-22T23:38:17.557Z,8.20
2018-02-22T23:43:08.486Z,6.47
2018-02-22T23:47:59.394Z,6.70
2018-02-22T23:52:50.346Z,7.20
2018-02-22T23:57:41.274Z,7.40
